Taylor, MI (48180)

6:30 AM EST on November 28, 2014 (GMT -0500)
Terry's Backyard Weather | Change Station
CLOSE
Current Station
Personal Weather Station
Location: Taylor, MI
Elevation: 605 ft
Nearby Weather Stations

Elev 605 ft 42.23 °N, 83.24 °W | Updated 11 seconds ago

Partly Cloudy
Partly Cloudy
20.9 °F
Feels Like 21 °F
N
1.1
Wind Variable Wind from NW
Gusts 2.3 mph

Today
High -- | Low -- °F
--% Chance of Precip.
Yesterday
High -- | Low -- °F
Precip. -- in
7:38 AM 5:02 PM
Waxing Crescent, 39% visible
Pressure 30.39 in
Visibility 10.0 miles
Clouds Scattered Clouds 3000 ft
Mostly Cloudy 9500 ft
Mostly Cloudy 17000 ft
Windchill 21 °F
Dew Point 12 °F
Humidity 69%
Rainfall 0.00 in
Snow Depth Not available.
UV 0 out of 12
Pollen .10 out of 12
Air Quality Not available.
Flu Activity Not available.
METAR KDTW 281053Z 30005KT 10SM SCT030 BKN095 BKN170 M07/M14 A3036 RMK AO2 SLP289 T10721144 $

More Conditions Fewer Conditions

Pressure 30.39 in
Visibility 10.0 miles
Clouds Scattered Clouds 3000 ft
Mostly Cloudy 9500 ft
Mostly Cloudy 17000 ft
Windchill 21 °F
Dew Point 12 °F
Humidity 69%
Rainfall 0.00 in
Snow Depth Not available.
UV 0 out of 12
Pollen .10 out of 12
Air Quality Not available.
Flu Activity Not available.
METAR KDTW 281053Z 30005KT 10SM SCT030 BKN095 BKN170 M07/M14 A3036 RMK AO2 SLP289 T10721144 $

More Conditions Fewer Conditions

10-Day Weather Forecast

Almanac

Astronomy

Nov. 28, 2014 Rise Set
Actual Time
Civil Twilight
Nautical Twilight
Astronomical Twilight
Moon
Length of Visible Light
Length of Day
Tomorrow will be .
, % of the Moon is Illuminated

Today's Extremes

State Highs State Lows

Community

WunderPhotos

Upload Photos

1,774,192 photos uploaded!

WunderBlogs® & News

Nearby

Air Quality

  Air Quality AQ Index Pollutant
Not available.

Snow Depth

Station Depth Elevation

Earthquake Activity

City Distance Mag. Time & Date
Minimum magnitude displayed is 2.5.

Coastal Water Temperatures

Place Temperature

Nearby Weather Stations